首页
METAR-TAF:

METAR-TAF

机场 :

维多利亚瀑布, 辛巴威

纬度: 18-06S, 经度: 025-51E, 海拔: 1061米

当前天气观测

该预报发布于57分钟前的12:09 UTC
风速8节,风向,在东转东北东转东南之间变化
温度 27°C
湿度 28%
气压 1021 hPa
能见度10公里或以上
1500米以下无云,无积雨云

METAR: FVFA 261209Z 09008KT 060V120 CAVOK 27/07 Q1021 NOSIG

时间: 15:06 (13:06 UTC)


TAF: 丢失

超过4000个机场的气象观测和天气预报(METAR&TAF报告)。

可查询的气象台以黄色和红色小点在地图上表示。

将鼠标移到小点上方,可查看气象台名称。

然后点击查看天气观测和预报。

如需切换地图:点击带黑十字的绿色按钮放大地图;点击带横线的绿色按钮缩小地图;或者点击绿色箭头查看邻近地区的地图。


METAR-TAF: